createdAt,value
2019-03-24T00:01:55.332Z,20.02
2019-03-24T00:04:21.867Z,18.67
2019-03-24T00:06:48.307Z,18.15
2019-03-24T00:09:14.759Z,18.82
2019-03-24T00:11:41.439Z,16.97
2019-03-24T00:14:08.006Z,17.65
2019-03-24T00:16:34.474Z,18.90
2019-03-24T00:19:00.927Z,19.57
2019-03-24T00:21:27.369Z,22.50
2019-03-24T00:23:53.810Z,18.50
2019-03-24T00:26:20.243Z,20.77
2019-03-24T00:28:46.812Z,21.33
2019-03-24T00:31:13.259Z,21.25
2019-03-24T00:33:40.946Z,21.25
2019-03-24T00:36:07.352Z,20.20
2019-03-24T00:38:33.813Z,23.55
2019-03-24T00:41:00.245Z,20.02
2019-03-24T00:43:26.779Z,19.00
2019-03-24T00:45:53.216Z,21.02
2019-03-24T00:48:19.680Z,22.30
2019-03-24T00:50:46.196Z,20.08
2019-03-24T00:53:12.754Z,21.70
2019-03-24T00:55:39.248Z,18.00
2019-03-24T00:58:05.770Z,18.67
2019-03-24T01:00:41.887Z,19.65
2019-03-24T01:03:08.504Z,18.12
2019-03-24T01:05:34.970Z,20.70
2019-03-24T01:08:01.504Z,20.72
2019-03-24T01:10:27.963Z,18.73
2019-03-24T01:12:55.389Z,19.20
2019-03-24T01:15:21.859Z,17.35
2019-03-24T01:17:48.265Z,18.73
2019-03-24T01:20:14.715Z,18.60
2019-03-24T01:22:41.167Z,16.23
2019-03-24T01:25:07.722Z,16.57
2019-03-24T01:27:34.187Z,20.68
2019-03-24T01:30:03.963Z,19.82
2019-03-24T01:32:30.378Z,21.20
2019-03-24T01:34:56.811Z,20.30
2019-03-24T01:37:23.505Z,22.93
2019-03-24T01:39:50.023Z,23.27
2019-03-24T01:42:16.449Z,18.87
2019-03-24T01:44:42.879Z,20.97
2019-03-24T01:47:09.336Z,20.27
2019-03-24T01:49:35.740Z,23.35
2019-03-24T01:52:02.184Z,20.85
2019-03-24T01:54:29.837Z,18.52
2019-03-24T01:56:56.299Z,19.12
2019-03-24T01:59:22.858Z,19.82
2019-03-24T02:01:49.267Z,20.62
2019-03-24T02:04:15.706Z,23.02
2019-03-24T02:06:42.164Z,20.75
2019-03-24T02:09:09.154Z,18.92
2019-03-24T02:11:35.707Z,22.58
2019-03-24T02:14:02.280Z,20.77
2019-03-24T02:16:28.701Z,19.90
2019-03-24T02:18:55.153Z,20.40
2019-03-24T02:21:21.788Z,18.57
2019-03-24T02:23:48.229Z,19.70
2019-03-24T02:26:15.878Z,17.75
2019-03-24T02:28:42.320Z,19.73
2019-03-24T02:31:08.751Z,15.43
2019-03-24T02:33:35.204Z,17.48
2019-03-24T02:36:01.654Z,23.22
2019-03-24T02:38:28.087Z,17.27
2019-03-24T02:40:54.565Z,18.23
2019-03-24T02:43:21.042Z,14.93
2019-03-24T02:45:47.463Z,18.32
2019-03-24T02:48:15.006Z,21.85
2019-03-24T02:50:41.658Z,19.32
2019-03-24T02:53:08.105Z,22.00
2019-03-24T02:55:34.544Z,19.23
2019-03-24T02:58:01.013Z,20.55
2019-03-24T03:00:27.440Z,16.23
2019-03-24T03:02:53.896Z,17.15
2019-03-24T03:05:20.321Z,18.52
2019-03-24T03:07:46.997Z,19.52
2019-03-24T03:10:15.126Z,19.02
2019-03-24T03:12:41.610Z,18.05
2019-03-24T03:15:10.467Z,19.60
2019-03-24T03:17:36.935Z,16.80
2019-03-24T03:20:06.256Z,18.77
2019-03-24T03:22:32.795Z,22.45
2019-03-24T03:24:59.232Z,20.02
2019-03-24T03:27:25.810Z,20.10
2019-03-24T03:29:52.232Z,20.72
2019-03-24T03:32:18.672Z,23.20
2019-03-24T03:34:45.139Z,20.20
2019-03-24T03:37:11.699Z,21.55
2019-03-24T03:39:38.130Z,22.17
2019-03-24T03:42:04.789Z,19.32
2019-03-24T03:44:31.379Z,25.10
2019-03-24T03:46:57.846Z,23.47
2019-03-24T03:49:24.283Z,22.60
2019-03-24T03:51:50.710Z,19.65
2019-03-24T03:54:17.181Z,20.25
2019-03-24T03:56:43.647Z,19.80
2019-03-24T03:59:10.064Z,24.63
2019-03-24T04:01:36.505Z,17.57
2019-03-24T04:04:03.956Z,17.05
2019-03-24T04:06:30.413Z,16.87
2019-03-24T04:08:57.989Z,19.77
2019-03-24T04:11:24.442Z,18.92
2019-03-24T04:13:50.871Z,18.02
2019-03-24T04:16:17.370Z,20.17
2019-03-24T04:18:43.818Z,22.15
2019-03-24T04:21:10.267Z,29.48
2019-03-24T04:23:36.726Z,23.12
2019-03-24T04:26:03.289Z,26.02
2019-03-24T04:28:29.718Z,19.85
2019-03-24T04:30:56.154Z,24.32
2019-03-24T04:33:22.605Z,24.87
2019-03-24T04:35:49.059Z,25.82
2019-03-24T04:38:15.530Z,21.97
2019-03-24T04:40:41.986Z,23.83
2019-03-24T04:43:08.397Z,21.65
2019-03-24T04:45:34.835Z,22.73
2019-03-24T04:48:01.343Z,18.65
2019-03-24T04:50:27.756Z,18.48
2019-03-24T04:52:54.188Z,22.48
2019-03-24T04:55:20.632Z,21.42
2019-03-24T04:57:47.048Z,32.55
2019-03-24T05:00:14.502Z,44.85
2019-03-24T05:02:40.962Z,30.57
2019-03-24T05:05:07.782Z,23.02
2019-03-24T05:07:34.633Z,24.95
2019-03-24T05:10:01.085Z,26.33
2019-03-24T05:12:27.522Z,24.55
2019-03-24T05:14:53.975Z,25.65
2019-03-24T05:17:27.083Z,25.20
2019-03-24T05:19:48.737Z,25.88
2019-03-24T05:22:15.174Z,28.47
2019-03-24T05:24:41.621Z,20.30
2019-03-24T05:27:08.048Z,22.20
2019-03-24T05:29:34.500Z,24.92
2019-03-24T05:32:01.040Z,24.35
2019-03-24T05:34:27.476Z,22.42
2019-03-24T05:36:53.916Z,22.90
2019-03-24T05:39:20.370Z,21.93
2019-03-24T05:41:46.814Z,27.27
2019-03-24T05:44:13.251Z,22.60
2019-03-24T05:46:39.722Z,21.60
2019-03-24T05:49:06.187Z,22.00
2019-03-24T05:51:32.721Z,24.18
2019-03-24T05:53:59.165Z,27.35
2019-03-24T05:56:25.637Z,23.05
2019-03-24T05:58:52.113Z,29.75
2019-03-24T06:01:18.578Z,24.30
2019-03-24T06:03:45.027Z,27.52
2019-03-24T06:06:11.476Z,32.60
2019-03-24T06:08:38.032Z,26.73
2019-03-24T06:11:04.490Z,31.35
2019-03-24T06:13:30.940Z,32.17
2019-03-24T06:15:57.403Z,33.30
2019-03-24T06:18:23.864Z,33.33
2019-03-24T06:20:50.311Z,35.60
2019-03-24T06:23:16.859Z,37.08
2019-03-24T06:25:43.299Z,39.50
2019-03-24T06:28:09.741Z,37.25
2019-03-24T06:30:36.211Z,36.95
2019-03-24T06:33:02.772Z,35.40
2019-03-24T06:35:29.242Z,37.25
2019-03-24T06:37:55.820Z,37.13
2019-03-24T06:40:22.370Z,34.53
2019-03-24T06:42:48.812Z,36.70
2019-03-24T06:45:15.367Z,33.33
2019-03-24T06:47:41.835Z,29.48
2019-03-24T06:50:08.614Z,28.83
2019-03-24T06:52:36.289Z,26.65
2019-03-24T06:55:03.679Z,25.10
2019-03-24T06:57:30.152Z,26.52
2019-03-24T06:59:56.625Z,31.33
2019-03-24T07:02:23.046Z,26.87
2019-03-24T07:04:49.634Z,28.45
2019-03-24T07:07:16.210Z,28.45
2019-03-24T07:09:42.676Z,27.42
2019-03-24T07:12:10.346Z,30.55
2019-03-24T07:14:36.806Z,29.55
2019-03-24T07:17:03.449Z,28.40
2019-03-24T07:19:31.160Z,32.00
2019-03-24T07:21:57.603Z,29.60
2019-03-24T07:24:24.039Z,35.03
2019-03-24T07:26:50.521Z,35.60
2019-03-24T07:29:16.987Z,43.08
2019-03-24T07:31:43.412Z,30.27
2019-03-24T07:34:09.878Z,31.12
2019-03-24T07:36:36.349Z,33.10
2019-03-24T07:39:04.629Z,29.30
2019-03-24T07:41:31.186Z,35.73
2019-03-24T07:43:57.626Z,30.85
2019-03-24T07:46:24.094Z,32.08
2019-03-24T07:48:50.553Z,32.53
2019-03-24T07:51:17.004Z,33.83
2019-03-24T07:53:43.444Z,30.23
2019-03-24T07:56:10.005Z,29.40
2019-03-24T07:58:36.492Z,29.37
2019-03-24T08:01:03.024Z,27.45
2019-03-24T08:03:29.481Z,30.55
2019-03-24T08:05:55.944Z,25.27
2019-03-24T08:08:22.481Z,30.90
2019-03-24T08:10:48.911Z,32.48
2019-03-24T08:13:15.369Z,33.60
2019-03-24T08:15:41.800Z,31.25
2019-03-24T08:18:08.226Z,27.35
2019-03-24T08:20:35.680Z,30.27
2019-03-24T08:23:02.167Z,29.23
2019-03-24T08:25:28.802Z,26.75
2019-03-24T08:27:55.483Z,27.02
2019-03-24T08:30:30.171Z,24.57
2019-03-24T08:32:56.639Z,23.10
2019-03-24T08:35:23.090Z,22.73
2019-03-24T08:37:49.531Z,21.48
2019-03-24T08:40:16.001Z,25.48
2019-03-24T08:42:42.458Z,23.62
2019-03-24T08:45:12.749Z,22.00
2019-03-24T08:47:39.227Z,21.05
2019-03-24T08:50:06.946Z,21.93
2019-03-24T08:52:33.407Z,24.18
2019-03-24T08:55:00.062Z,23.90
2019-03-24T08:57:26.652Z,22.90
2019-03-24T08:59:53.105Z,20.00
2019-03-24T09:02:19.610Z,25.97
2019-03-24T09:04:46.043Z,20.62
2019-03-24T09:07:12.521Z,18.95
2019-03-24T09:09:38.982Z,19.20
2019-03-24T09:12:05.539Z,19.32
2019-03-24T09:14:32.030Z,19.23
2019-03-24T09:16:58.485Z,21.73
2019-03-24T09:19:25.030Z,27.15
2019-03-24T09:21:51.538Z,27.05
2019-03-24T09:24:18.015Z,18.40
2019-03-24T09:26:44.509Z,30.60
2019-03-24T09:29:11.125Z,26.07
2019-03-24T09:31:37.599Z,16.85
2019-03-24T09:34:04.254Z,17.60
2019-03-24T09:36:30.840Z,15.95
2019-03-24T09:38:57.307Z,18.45
2019-03-24T09:41:23.738Z,20.52
2019-03-24T09:43:50.302Z,17.15
2019-03-24T09:46:16.790Z,15.80
2019-03-24T09:48:43.396Z,18.45
2019-03-24T09:51:09.883Z,15.03
2019-03-24T09:53:36.362Z,14.75
2019-03-24T09:56:02.806Z,18.35
2019-03-24T09:58:30.965Z,20.23
2019-03-24T10:00:57.438Z,17.75
2019-03-24T10:03:23.879Z,15.38
2019-03-24T10:05:50.364Z,17.80
2019-03-24T10:08:16.957Z,22.00
2019-03-24T10:10:43.516Z,20.55
2019-03-24T10:13:10.092Z,18.98
2019-03-24T10:15:36.680Z,21.42
2019-03-24T10:18:03.122Z,16.97
2019-03-24T10:20:29.709Z,20.77
2019-03-24T10:22:56.194Z,20.00
2019-03-24T10:25:22.635Z,17.12
2019-03-24T10:27:49.169Z,16.60
2019-03-24T10:30:16.445Z,19.87
2019-03-24T10:32:42.982Z,16.42
2019-03-24T10:35:09.624Z,15.85
2019-03-24T10:37:36.335Z,21.05
2019-03-24T10:40:13.543Z,18.20
2019-03-24T10:42:52.569Z,21.00
2019-03-24T10:45:34.754Z,16.57
2019-03-24T10:48:13.621Z,20.40
2019-03-24T10:50:49.290Z,29.02
2019-03-24T10:53:25.354Z,20.75
2019-03-24T10:56:05.293Z,18.12
2019-03-24T10:58:44.186Z,21.07
2019-03-24T11:01:22.124Z,18.45
2019-03-24T11:03:57.496Z,19.65
2019-03-24T11:06:31.861Z,27.95
2019-03-24T11:09:12.889Z,20.23
2019-03-24T11:11:53.390Z,16.48
2019-03-24T11:14:34.063Z,16.23
2019-03-24T11:17:07.481Z,14.35
2019-03-24T11:19:36.148Z,16.73
2019-03-24T11:22:24.900Z,16.25
2019-03-24T11:25:11.051Z,15.38
2019-03-24T11:27:53.767Z,16.15
2019-03-24T11:30:32.985Z,16.32
2019-03-24T11:33:23.019Z,16.62
2019-03-24T11:36:07.556Z,16.95
2019-03-24T11:38:53.445Z,14.35
2019-03-24T11:41:38.202Z,16.93
2019-03-24T11:44:24.772Z,14.58
2019-03-24T11:47:06.448Z,18.10
2019-03-24T11:49:46.223Z,13.98
2019-03-24T11:52:36.578Z,13.83
2019-03-24T11:55:12.792Z,11.33
2019-03-24T11:58:05.275Z,15.28
2019-03-24T12:00:54.592Z,9.80
2019-03-24T12:03:47.834Z,14.30
2019-03-24T12:06:32.975Z,12.20
2019-03-24T12:09:27.875Z,12.00
2019-03-24T12:12:15.280Z,11.27
2019-03-24T12:15:05.440Z,10.82
2019-03-24T12:17:52.738Z,7.03
2019-03-24T12:20:46.045Z,9.40
2019-03-24T12:23:31.914Z,7.92
2019-03-24T12:26:13.783Z,8.18
2019-03-24T12:28:54.728Z,8.90
2019-03-24T12:31:33.293Z,6.55
2019-03-24T12:34:18.325Z,7.87
2019-03-24T12:37:06.417Z,5.83
2019-03-24T12:39:51.442Z,8.00
2019-03-24T12:42:37.220Z,6.97
2019-03-24T12:45:21.730Z,6.30
2019-03-24T12:48:07.906Z,7.28
2019-03-24T12:50:53.725Z,8.70
2019-03-24T12:53:44.548Z,7.90
2019-03-24T12:56:26.914Z,5.55
2019-03-24T12:59:00.078Z,5.75
2019-03-24T13:01:44.066Z,9.05
2019-03-24T13:04:27.715Z,5.20
2019-03-24T13:07:12.033Z,7.05
2019-03-24T13:09:57.876Z,4.33
2019-03-24T13:12:37.288Z,5.03
2019-03-24T13:15:16.393Z,4.03
2019-03-24T13:17:48.927Z,4.62
2019-03-24T13:20:38.021Z,4.80
2019-03-24T13:23:17.974Z,3.90
2019-03-24T13:26:08.643Z,4.78
2019-03-24T13:28:55.587Z,5.33
2019-03-24T13:31:36.034Z,3.85
2019-03-24T13:34:19.515Z,4.85
2019-03-24T13:37:07.044Z,6.78
2019-03-24T13:39:50.611Z,7.15
2019-03-24T13:42:36.338Z,6.65
2019-03-24T13:45:18.649Z,4.67
2019-03-24T13:48:04.710Z,8.60
2019-03-24T13:50:39.593Z,5.45
2019-03-24T13:53:26.589Z,5.33
2019-03-24T13:56:11.010Z,4.45
2019-03-24T13:58:54.373Z,7.40
2019-03-24T14:01:33.131Z,4.65
2019-03-24T14:04:15.335Z,5.03
2019-03-24T14:07:01.782Z,6.03
2019-03-24T14:09:42.147Z,3.52
2019-03-24T14:12:24.963Z,8.08
2019-03-24T14:17:52.949Z,11.20
2019-03-24T14:20:26.069Z,10.63
2019-03-24T14:23:11.169Z,8.83
2019-03-24T14:25:58.746Z,8.55
2019-03-24T14:28:45.120Z,5.25
2019-03-24T14:31:35.229Z,9.43
2019-03-24T14:34:19.189Z,6.65
2019-03-24T14:37:02.947Z,6.53
2019-03-24T14:39:51.735Z,5.30
2019-03-24T14:42:32.273Z,5.00
2019-03-24T14:45:16.658Z,8.03
2019-03-24T14:47:59.901Z,20.02
2019-03-24T14:50:41.200Z,3.98
2019-03-24T14:53:25.753Z,2.40
2019-03-24T14:56:12.403Z,5.70
2019-03-24T14:58:55.046Z,3.75
2019-03-24T15:01:37.678Z,4.65
2019-03-24T15:04:19.167Z,4.87
2019-03-24T15:06:59.838Z,22.90
2019-03-24T15:09:40.548Z,6.03
2019-03-24T15:12:14.753Z,8.75
2019-03-24T15:14:57.258Z,3.40
2019-03-24T15:17:34.491Z,8.73
2019-03-24T15:20:20.581Z,3.67
2019-03-24T15:23:12.783Z,3.72
2019-03-24T15:26:04.125Z,4.53
2019-03-24T15:28:55.186Z,5.55
2019-03-24T15:31:40.925Z,4.03
2019-03-24T15:34:28.287Z,4.17
2019-03-24T15:37:07.487Z,5.03
2019-03-24T15:40:02.561Z,15.63
2019-03-24T15:42:52.770Z,7.75
2019-03-24T15:45:50.531Z,5.85
2019-03-24T15:48:37.452Z,5.33
2019-03-24T15:51:31.865Z,4.75
2019-03-24T15:54:22.643Z,6.28
2019-03-24T15:57:09.045Z,5.28
2019-03-24T15:59:58.263Z,2.77
2019-03-24T16:02:41.304Z,5.80
2019-03-24T16:05:25.650Z,4.50
2019-03-24T16:08:05.580Z,5.70
2019-03-24T16:10:41.600Z,3.87
2019-03-24T16:13:18.590Z,5.95
2019-03-24T16:15:58.417Z,4.10
2019-03-24T16:18:38.516Z,3.87
2019-03-24T16:21:31.174Z,9.45
2019-03-24T16:24:07.385Z,22.37
2019-03-24T16:26:43.987Z,9.10
2019-03-24T16:29:25.518Z,6.78
2019-03-24T16:32:07.159Z,9.00
2019-03-24T16:34:51.732Z,23.50
2019-03-24T16:37:27.575Z,14.10
2019-03-24T16:40:02.224Z,8.23
2019-03-24T16:42:31.996Z,5.75
2019-03-24T16:45:11.694Z,5.08
2019-03-24T16:47:48.897Z,10.00
2019-03-24T16:50:25.895Z,6.20
2019-03-24T16:53:09.153Z,5.12
2019-03-24T16:55:41.707Z,4.28
2019-03-24T17:01:03.640Z,6.90
2019-03-24T17:03:40.419Z,4.87
2019-03-24T17:06:18.777Z,4.60
2019-03-24T17:08:57.874Z,7.33
2019-03-24T17:11:35.395Z,10.65
2019-03-24T17:14:21.167Z,7.30
2019-03-24T17:17:06.498Z,12.53
2019-03-24T17:22:56.474Z,7.97
2019-03-24T17:28:37.954Z,126.05
2019-03-24T17:31:27.965Z,7.50
2019-03-24T17:37:24.551Z,7.22
2019-03-24T17:40:19.050Z,6.85
2019-03-24T17:43:06.545Z,5.45
2019-03-24T17:45:56.051Z,8.53
2019-03-24T17:55:01.572Z,5.78
2019-03-24T18:04:24.611Z,8.25
2019-03-24T18:07:11.334Z,6.20
2019-03-24T18:10:05.293Z,6.72
2019-03-24T18:16:28.999Z,9.45
2019-03-24T18:19:20.045Z,10.93
2019-03-24T18:25:19.299Z,8.83
2019-03-24T18:28:21.558Z,7.87
2019-03-24T18:31:28.147Z,8.35
2019-03-24T18:43:38.706Z,38.98
2019-03-24T19:01:54.320Z,9.18
2019-03-24T19:04:46.185Z,8.55
2019-03-24T19:07:31.782Z,6.95
2019-03-24T21:09:56.226Z,10.63
2019-03-24T21:18:51.186Z,20.65
2019-03-24T21:27:58.182Z,14.90
2019-03-24T22:01:51.840Z,14.45
2019-03-24T22:17:10.445Z,12.88
2019-03-24T22:20:09.772Z,15.10
2019-03-24T22:23:00.102Z,15.15
2019-03-24T22:29:07.313Z,13.78
2019-03-24T22:35:19.171Z,14.07
2019-03-24T22:38:08.949Z,11.60
2019-03-24T22:40:57.776Z,11.68
2019-03-24T22:46:59.616Z,14.15
2019-03-24T22:49:58.181Z,17.65
2019-03-24T22:52:45.010Z,14.35
2019-03-24T22:55:35.619Z,14.23
2019-03-24T23:01:23.344Z,15.98
2019-03-24T23:04:17.377Z,12.60
2019-03-24T23:13:20.979Z,11.30
2019-03-24T23:16:22.321Z,16.67
2019-03-24T23:19:32.418Z,20.70
2019-03-24T23:22:37.532Z,15.78
2019-03-24T23:25:33.378Z,17.50
2019-03-24T23:28:29.498Z,17.80
2019-03-24T23:31:27.778Z,15.45
2019-03-24T23:34:18.634Z,15.72
2019-03-24T23:43:19.336Z,11.68
2019-03-24T23:46:17.686Z,15.50
2019-03-24T23:49:05.705Z,18.37
2019-03-24T23:51:57.793Z,14.83
2019-03-24T23:54:57.948Z,14.80
2019-03-24T23:57:44.117Z,15.23
